createdAt,value
2023-03-21T00:00:56.072Z,90.26
2023-03-21T00:01:55.949Z,90.12
2023-03-21T00:02:55.989Z,89.50
2023-03-21T00:03:55.976Z,89.60
2023-03-21T00:05:00.558Z,90.26
2023-03-21T00:05:56.963Z,90.16
2023-03-21T00:06:55.891Z,90.12
2023-03-21T00:07:55.881Z,89.85
2023-03-21T00:08:55.881Z,90.32
2023-03-21T00:10:04.813Z,90.12
2023-03-21T00:10:56.858Z,89.60
2023-03-21T00:11:55.849Z,89.60
2023-03-21T00:12:55.824Z,89.50
2023-03-21T00:13:55.835Z,89.81
2023-03-21T00:14:55.798Z,89.81
2023-03-21T00:16:56.770Z,89.81
2023-03-21T00:17:55.782Z,89.85
2023-03-21T00:18:55.756Z,89.64
2023-03-21T00:19:55.754Z,89.70
2023-03-21T00:22:07.355Z,89.81
2023-03-21T00:22:56.718Z,89.81
2023-03-21T00:23:55.706Z,89.34
2023-03-21T00:24:55.697Z,89.81
2023-03-21T00:25:55.705Z,89.60
2023-03-21T00:27:06.073Z,89.81
2023-03-21T00:28:07.581Z,89.19
2023-03-21T00:28:56.642Z,89.50
2023-03-21T00:29:55.641Z,89.70
2023-03-21T00:30:55.643Z,89.50
2023-03-21T00:31:55.631Z,89.91
2023-03-21T00:32:56.968Z,90.01
2023-03-21T00:33:55.615Z,90.12
2023-03-21T00:35:13.720Z,89.60
2023-03-21T00:36:05.231Z,89.50
2023-03-21T00:36:56.621Z,89.81
2023-03-21T00:37:55.560Z,89.81
2023-03-21T00:38:55.557Z,89.29
2023-03-21T00:39:55.653Z,90.01
2023-03-21T00:40:56.859Z,89.19
2023-03-21T00:41:55.596Z,88.68
2023-03-21T00:42:55.522Z,88.98
2023-03-21T00:43:55.771Z,88.98
2023-03-21T00:44:55.483Z,89.19
2023-03-21T00:45:55.448Z,89.09
2023-03-21T00:47:06.486Z,89.50
2023-03-21T00:47:56.666Z,90.06
2023-03-21T00:48:55.422Z,90.12
2023-03-21T00:49:55.408Z,89.54
2023-03-21T00:50:55.417Z,89.09
2023-03-21T00:51:59.409Z,88.78
2023-03-21T00:52:56.407Z,88.78
2023-03-21T00:53:55.407Z,89.50
2023-03-21T00:54:55.360Z,89.64
2023-03-21T00:55:55.365Z,89.50
2023-03-21T00:56:55.358Z,89.29
2023-03-21T00:58:01.625Z,89.70
2023-03-21T00:58:56.309Z,90.01
2023-03-21T00:59:55.370Z,90.06
2023-03-21T01:00:55.368Z,89.09
2023-03-21T01:01:55.355Z,89.19
2023-03-21T01:03:02.724Z,88.72
2023-03-21T01:03:56.269Z,88.72
2023-03-21T01:04:55.263Z,88.89
2023-03-21T01:05:55.243Z,88.68
2023-03-21T01:06:55.226Z,88.72
2023-03-21T01:07:55.211Z,88.82
2023-03-21T01:08:55.302Z,89.19
2023-03-21T01:09:55.268Z,89.09
2023-03-21T01:10:55.199Z,88.98
2023-03-21T01:11:55.168Z,88.89
2023-03-21T01:12:55.181Z,87.85
2023-03-21T01:14:04.070Z,88.33
2023-03-21T01:14:56.157Z,88.27
2023-03-21T01:15:55.166Z,88.57
2023-03-21T01:16:55.122Z,88.68
2023-03-21T01:17:55.113Z,88.27
2023-03-21T01:18:55.112Z,88.78
2023-03-21T01:19:55.081Z,89.09
2023-03-21T01:20:55.072Z,88.78
2023-03-21T01:21:55.085Z,88.27
2023-03-21T01:22:55.036Z,88.89
2023-03-21T01:23:55.049Z,88.47
2023-03-21T01:25:00.534Z,88.98
2023-03-21T01:25:56.044Z,88.78
2023-03-21T01:26:54.987Z,88.47
2023-03-21T01:27:54.981Z,88.27
2023-03-21T01:28:54.972Z,88.17
2023-03-21T01:29:54.988Z,88.84
2023-03-21T01:30:54.959Z,88.37
2023-03-21T01:31:54.998Z,88.57
2023-03-21T01:32:54.933Z,88.37
2023-03-21T01:33:54.920Z,88.78
2023-03-21T01:34:54.905Z,88.47
2023-03-21T01:36:03.274Z,88.84
2023-03-21T01:36:55.964Z,88.06
2023-03-21T01:37:54.863Z,88.68
2023-03-21T01:38:54.862Z,88.68
2023-03-21T01:39:54.844Z,88.78
2023-03-21T01:40:54.836Z,88.98
2023-03-21T01:41:54.866Z,87.96
2023-03-21T01:42:54.807Z,88.47
2023-03-21T01:43:54.820Z,87.92
2023-03-21T01:44:54.813Z,87.51
2023-03-21T01:45:54.798Z,87.61
2023-03-21T01:47:12.161Z,87.55
2023-03-21T01:47:55.817Z,88.06
2023-03-21T01:48:54.736Z,87.55
2023-03-21T01:49:54.752Z,87.55
2023-03-21T01:50:54.715Z,88.06
2023-03-21T01:51:56.709Z,88.17
2023-03-21T01:52:54.699Z,87.55
2023-03-21T01:53:54.695Z,88.27
2023-03-21T01:54:54.679Z,87.75
2023-03-21T01:55:54.708Z,87.65
2023-03-21T01:56:54.678Z,87.85
2023-03-21T01:58:05.241Z,88.17
2023-03-21T01:58:55.630Z,88.06
2023-03-21T01:59:54.636Z,87.61
2023-03-21T02:00:54.667Z,87.55
2023-03-21T02:01:54.599Z,87.96
2023-03-21T02:02:56.188Z,87.65
2023-03-21T02:03:54.640Z,88.06
2023-03-21T02:04:54.594Z,88.27
2023-03-21T02:05:54.562Z,88.64
2023-03-21T02:06:54.558Z,88.89
2023-03-21T02:07:54.548Z,88.78
2023-03-21T02:08:54.531Z,87.92
2023-03-21T02:09:54.525Z,88.27
2023-03-21T02:10:54.497Z,87.96
2023-03-21T02:11:54.492Z,88.57
2023-03-21T02:12:54.470Z,88.68
2023-03-21T02:14:05.726Z,88.68
2023-03-21T02:14:55.483Z,88.57
2023-03-21T02:15:54.441Z,88.98
2023-03-21T02:16:54.626Z,89.09
2023-03-21T02:17:54.440Z,88.78
2023-03-21T02:18:54.410Z,88.17
2023-03-21T02:19:54.413Z,88.23
2023-03-21T02:20:54.388Z,89.19
2023-03-21T02:21:54.375Z,89.09
2023-03-21T02:22:54.378Z,88.98
2023-03-21T02:23:54.358Z,88.98
2023-03-21T02:25:01.328Z,88.78
2023-03-21T02:25:55.386Z,88.89
2023-03-21T02:27:03.677Z,89.19
2023-03-21T02:27:55.308Z,89.09
2023-03-21T02:28:54.291Z,89.09
2023-03-21T02:29:54.303Z,89.09
2023-03-21T02:30:54.682Z,89.29
2023-03-21T02:31:55.815Z,89.19
2023-03-21T02:32:54.277Z,88.89
2023-03-21T02:33:54.238Z,88.27
2023-03-21T02:34:54.232Z,88.98
2023-03-21T02:35:56.817Z,88.78
2023-03-21T02:36:54.200Z,88.89
2023-03-21T02:38:00.034Z,89.19
2023-03-21T02:38:55.189Z,88.95
2023-03-21T02:39:54.167Z,89.19
2023-03-21T02:40:54.181Z,88.98
2023-03-21T02:41:54.151Z,89.36
2023-03-21T02:42:59.957Z,89.50
2023-03-21T02:43:55.123Z,89.70
2023-03-21T02:44:54.112Z,89.60
2023-03-21T02:45:54.176Z,89.56
2023-03-21T02:47:04.658Z,88.84
2023-03-21T02:47:55.106Z,88.84
2023-03-21T02:48:54.134Z,89.09
2023-03-21T02:49:54.050Z,88.89
2023-03-21T02:50:54.075Z,89.04
2023-03-21T02:51:54.795Z,89.09
2023-03-21T02:52:54.058Z,89.19
2023-03-21T02:54:20.038Z,89.50
2023-03-21T02:54:54.995Z,89.25
2023-03-21T02:55:53.992Z,89.40
2023-03-21T02:56:54.016Z,89.40
2023-03-21T02:57:53.999Z,89.40
2023-03-21T02:58:53.987Z,88.68
2023-03-21T03:00:00.149Z,88.89
2023-03-21T03:00:54.935Z,89.60
2023-03-21T03:01:53.979Z,89.81
2023-03-21T03:03:06.303Z,88.78
2023-03-21T03:03:54.969Z,88.78
2023-03-21T03:04:53.901Z,88.98
2023-03-21T03:05:53.892Z,88.27
2023-03-21T03:06:53.924Z,88.47
2023-03-21T03:07:53.858Z,88.47
2023-03-21T03:09:02.224Z,88.53
2023-03-21T03:09:54.836Z,88.47
2023-03-21T03:10:53.842Z,88.17
2023-03-21T03:11:53.949Z,88.17
2023-03-21T03:12:53.813Z,88.27
2023-03-21T03:13:53.820Z,88.06
2023-03-21T03:15:03.065Z,87.51
2023-03-21T03:15:54.918Z,87.65
2023-03-21T03:16:53.778Z,88.33
2023-03-21T03:17:53.793Z,87.96
2023-03-21T03:18:53.746Z,88.47
2023-03-21T03:19:53.745Z,88.89
2023-03-21T03:20:53.713Z,88.47
2023-03-21T03:21:53.709Z,88.47
2023-03-21T03:22:53.799Z,88.37
2023-03-21T03:23:53.684Z,88.47
2023-03-21T03:24:53.664Z,88.47
2023-03-21T03:25:53.662Z,88.47
2023-03-21T03:26:53.680Z,88.47
2023-03-21T03:27:53.664Z,88.47
2023-03-21T03:28:53.620Z,88.64
2023-03-21T03:29:53.609Z,88.27
2023-03-21T03:31:07.395Z,89.19
2023-03-21T03:31:54.715Z,89.70
2023-03-21T03:32:53.605Z,89.97
2023-03-21T03:33:53.580Z,89.81
2023-03-21T03:34:53.554Z,90.01
2023-03-21T03:36:04.916Z,90.73
2023-03-21T03:36:54.578Z,90.63
2023-03-21T03:37:53.516Z,90.22
2023-03-21T03:38:53.500Z,90.57
2023-03-21T03:39:53.491Z,91.08
2023-03-21T03:40:53.496Z,90.83
2023-03-21T03:42:25.405Z,91.04
2023-03-21T03:42:54.478Z,91.14
2023-03-21T03:43:53.451Z,91.45
2023-03-21T03:44:53.444Z,91.60
2023-03-21T03:45:53.425Z,91.25
2023-03-21T03:46:53.571Z,91.04
2023-03-21T03:47:57.195Z,92.01
2023-03-21T03:48:53.424Z,92.01
2023-03-21T03:49:53.412Z,92.32
2023-03-21T03:50:53.373Z,92.11
2023-03-21T03:51:53.355Z,91.80
2023-03-21T03:52:56.553Z,92.63
2023-03-21T03:53:53.340Z,92.32
2023-03-21T03:54:53.361Z,92.32
2023-03-21T03:55:53.320Z,92.32
2023-03-21T03:56:53.302Z,91.80
2023-03-21T03:57:53.316Z,92.21
2023-03-21T03:58:53.316Z,91.70
2023-03-21T03:59:53.266Z,92.21
2023-03-21T04:00:53.261Z,92.21
2023-03-21T04:01:53.287Z,92.11
2023-03-21T04:02:53.447Z,91.80
2023-03-21T04:04:06.771Z,91.80
2023-03-21T04:04:54.217Z,91.80
2023-03-21T04:05:53.235Z,92.21
2023-03-21T04:06:53.209Z,92.01
2023-03-21T04:07:53.195Z,92.32
2023-03-21T04:08:53.171Z,92.21
2023-03-21T04:09:53.159Z,92.01
2023-03-21T04:10:53.172Z,91.91
2023-03-21T04:11:53.169Z,92.21
2023-03-21T04:12:53.127Z,92.42
2023-03-21T04:13:53.152Z,91.80
2023-03-21T04:14:53.344Z,92.83
2023-03-21T04:15:53.119Z,92.73
2023-03-21T04:16:53.077Z,92.93
2023-03-21T04:17:53.100Z,93.24
2023-03-21T04:18:53.085Z,93.04
2023-03-21T04:20:02.557Z,93.04
2023-03-21T04:20:54.050Z,92.57
2023-03-21T04:21:53.089Z,93.14
2023-03-21T04:22:53.124Z,93.18
2023-03-21T04:23:53.024Z,93.49
2023-03-21T04:24:52.989Z,93.18
2023-03-21T04:25:57.033Z,93.29
2023-03-21T04:26:52.971Z,93.39
2023-03-21T04:27:52.995Z,93.39
2023-03-21T04:28:52.981Z,93.29
2023-03-21T04:29:53.090Z,93.29
2023-03-21T04:31:03.299Z,93.29
2023-03-21T04:31:53.980Z,93.08
2023-03-21T04:32:52.907Z,93.08
2023-03-21T04:33:52.902Z,93.08
2023-03-21T04:34:52.890Z,93.08
2023-03-21T04:35:52.967Z,93.08
2023-03-21T04:36:52.896Z,93.14
2023-03-21T04:37:52.868Z,92.97
2023-03-21T04:38:52.841Z,92.93
2023-03-21T04:39:52.830Z,93.04
2023-03-21T04:40:52.855Z,93.59
2023-03-21T04:41:52.830Z,93.14
2023-03-21T04:42:52.793Z,92.97
2023-03-21T04:43:52.788Z,93.35
2023-03-21T04:44:52.771Z,92.97
2023-03-21T04:45:52.826Z,93.18
2023-03-21T04:46:52.753Z,92.77
2023-03-21T04:47:52.747Z,92.93
2023-03-21T04:48:52.729Z,92.97
2023-03-21T04:49:52.739Z,92.97
2023-03-21T04:50:52.696Z,93.08
2023-03-21T04:51:52.692Z,92.97
2023-03-21T04:52:52.720Z,93.08
2023-03-21T04:53:52.748Z,92.97
2023-03-21T04:54:52.668Z,93.08
2023-03-21T04:55:55.314Z,93.18
2023-03-21T04:56:52.628Z,93.08
2023-03-21T04:57:52.639Z,93.70
2023-03-21T04:58:52.642Z,93.14
2023-03-21T04:59:52.680Z,93.04
2023-03-21T05:00:52.680Z,92.93
2023-03-21T05:01:52.562Z,93.04
2023-03-21T05:02:52.564Z,92.73
2023-03-21T05:03:52.585Z,92.83
2023-03-21T05:04:52.548Z,92.97
2023-03-21T05:05:52.546Z,92.73
2023-03-21T05:06:52.523Z,93.04
2023-03-21T05:07:52.511Z,92.93
2023-03-21T05:08:52.514Z,92.87
2023-03-21T05:09:52.529Z,92.87
2023-03-21T05:10:52.526Z,93.04
2023-03-21T05:11:52.454Z,92.93
2023-03-21T05:12:52.464Z,93.24
2023-03-21T05:13:52.449Z,93.55
2023-03-21T05:14:52.507Z,93.70
2023-03-21T05:15:52.438Z,93.29
2023-03-21T05:16:52.428Z,92.93
2023-03-21T05:17:52.392Z,93.04
2023-03-21T05:18:52.423Z,92.93
2023-03-21T05:19:52.380Z,93.08
2023-03-21T05:20:52.378Z,92.73
2023-03-21T05:21:52.373Z,92.57
2023-03-21T05:22:52.339Z,93.24
2023-03-21T05:23:52.327Z,92.93
2023-03-21T05:24:52.308Z,93.55
2023-03-21T05:25:52.330Z,92.93
2023-03-21T05:26:52.337Z,92.63
2023-03-21T05:27:52.278Z,92.93
2023-03-21T05:28:52.265Z,92.77
2023-03-21T05:29:52.278Z,92.83
2023-03-21T05:30:52.342Z,92.73
2023-03-21T05:31:52.257Z,92.83
2023-03-21T05:32:52.215Z,92.73
2023-03-21T05:33:52.207Z,92.73
2023-03-21T05:34:52.205Z,92.83
2023-03-21T05:35:52.241Z,93.04
2023-03-21T05:36:52.213Z,93.14
2023-03-21T05:37:52.185Z,93.14
2023-03-21T05:38:52.152Z,92.93
2023-03-21T05:39:52.145Z,92.77
2023-03-21T05:40:52.131Z,92.97
2023-03-21T05:41:52.167Z,92.73
2023-03-21T05:42:52.119Z,92.42
2023-03-21T05:43:52.097Z,92.57
2023-03-21T05:44:52.085Z,92.93
2023-03-21T05:45:52.155Z,92.63
2023-03-21T05:46:52.092Z,92.83
2023-03-21T05:47:52.090Z,92.52
2023-03-21T05:48:52.079Z,92.01
2023-03-21T05:49:52.026Z,92.52
2023-03-21T05:50:52.040Z,92.63
2023-03-21T05:51:52.011Z,92.21
2023-03-21T05:52:52.030Z,92.42
2023-03-21T05:53:52.007Z,92.21
2023-03-21T05:54:51.984Z,93.04
2023-03-21T05:55:51.966Z,92.83
2023-03-21T05:56:51.950Z,92.63
2023-03-21T05:57:51.980Z,92.63
2023-03-21T05:58:51.951Z,92.83
2023-03-21T05:59:51.926Z,92.73
2023-03-21T06:00:51.903Z,92.83
2023-03-21T06:01:51.920Z,92.93
2023-03-21T06:02:51.975Z,93.04
2023-03-21T06:03:51.913Z,93.04
2023-03-21T06:04:51.864Z,92.73
2023-03-21T06:05:51.877Z,93.14
2023-03-21T06:06:51.855Z,92.83
2023-03-21T06:07:51.828Z,93.14
2023-03-21T06:08:51.821Z,91.97
2023-03-21T06:09:51.816Z,92.69
2023-03-21T06:10:51.833Z,92.38
2023-03-21T06:11:51.778Z,92.38
2023-03-21T06:12:51.775Z,92.17
2023-03-21T06:13:51.775Z,92.17
2023-03-21T06:14:51.776Z,91.76
2023-03-21T06:15:51.834Z,91.14
2023-03-21T06:16:51.792Z,91.86
2023-03-21T06:17:51.718Z,90.69
2023-03-21T06:18:51.707Z,91.55
2023-03-21T06:19:51.694Z,90.89
2023-03-21T06:20:51.705Z,90.69
2023-03-21T06:21:51.714Z,90.38
2023-03-21T06:22:51.676Z,90.28
2023-03-21T06:23:51.681Z,89.72
2023-03-21T06:24:51.639Z,90.24
2023-03-21T06:25:51.633Z,89.42
2023-03-21T06:26:51.620Z,90.03
2023-03-21T06:27:51.619Z,89.01
2023-03-21T06:28:51.626Z,88.39
2023-03-21T06:29:51.599Z,88.90
2023-03-21T06:30:51.562Z,88.96
2023-03-21T06:31:51.585Z,89.01
2023-03-21T06:32:51.572Z,88.49
2023-03-21T06:33:51.539Z,88.76
2023-03-21T06:34:51.537Z,88.66
2023-03-21T06:35:51.631Z,88.82
2023-03-21T06:36:51.526Z,88.24
2023-03-21T06:37:51.488Z,87.84
2023-03-21T06:38:51.495Z,88.21
2023-03-21T06:39:51.464Z,88.04
2023-03-21T06:40:51.567Z,87.73
2023-03-21T06:41:51.469Z,88.35
2023-03-21T06:42:51.577Z,88.56
2023-03-21T06:43:51.454Z,88.31
2023-03-21T06:44:51.426Z,88.21
2023-03-21T06:45:51.602Z,87.70
2023-03-21T06:46:51.486Z,87.94
2023-03-21T06:47:51.544Z,87.90
2023-03-21T06:48:51.366Z,87.90
2023-03-21T06:49:51.358Z,87.38
2023-03-21T06:50:51.349Z,87.38
2023-03-21T06:51:51.383Z,87.49
2023-03-21T06:52:51.331Z,87.49
2023-03-21T06:53:51.319Z,88.10
2023-03-21T06:54:51.301Z,87.79
2023-03-21T06:55:51.312Z,87.45
2023-03-21T06:56:51.281Z,86.83
2023-03-21T06:57:51.260Z,86.42
2023-03-21T06:58:51.258Z,86.63
2023-03-21T06:59:51.240Z,86.32
2023-03-21T07:00:51.369Z,86.52
2023-03-21T07:01:51.257Z,87.65
2023-03-21T07:02:51.438Z,87.76
2023-03-21T07:03:51.194Z,87.41
2023-03-21T07:04:51.213Z,87.45
2023-03-21T07:05:51.170Z,87.76
2023-03-21T07:06:51.178Z,87.45
2023-03-21T07:07:51.164Z,87.76
2023-03-21T07:08:51.140Z,87.96
2023-03-21T07:09:51.137Z,87.55
2023-03-21T07:10:51.136Z,87.76
2023-03-21T07:11:51.151Z,87.76
2023-03-21T07:12:51.103Z,86.42
2023-03-21T07:13:51.106Z,87.45
2023-03-21T07:14:51.069Z,87.34
2023-03-21T07:15:51.061Z,87.45
2023-03-21T07:16:51.173Z,87.76
2023-03-21T07:17:51.055Z,87.76
2023-03-21T07:18:51.047Z,87.34
2023-03-21T07:19:51.014Z,87.04
2023-03-21T07:20:51.167Z,87.76
2023-03-21T07:21:51.023Z,87.76
2023-03-21T07:22:50.978Z,87.24
2023-03-21T07:23:50.975Z,86.83
2023-03-21T07:25:03.994Z,86.42
2023-03-21T07:25:52.068Z,87.34
2023-03-21T07:26:50.940Z,86.52
2023-03-21T07:27:50.925Z,86.73
2023-03-21T07:28:50.913Z,86.79
2023-03-21T07:29:50.902Z,86.73
2023-03-21T07:30:50.916Z,86.48
2023-03-21T07:31:50.924Z,86.90
2023-03-21T07:32:50.871Z,86.38
2023-03-21T07:33:50.873Z,86.38
2023-03-21T07:34:50.849Z,86.48
2023-03-21T07:35:50.905Z,86.99
2023-03-21T07:36:50.832Z,86.42
2023-03-21T07:37:50.818Z,86.69
2023-03-21T07:38:50.811Z,86.69
2023-03-21T07:39:50.792Z,86.07
2023-03-21T07:40:50.794Z,85.87
2023-03-21T07:41:50.788Z,86.28
2023-03-21T07:42:50.781Z,86.63
2023-03-21T07:43:50.759Z,86.69
2023-03-21T07:44:50.764Z,86.79
2023-03-21T07:45:50.758Z,87.20
2023-03-21T07:46:50.705Z,86.79
2023-03-21T07:47:50.772Z,86.79
2023-03-21T07:48:50.678Z,86.69
2023-03-21T07:49:50.695Z,86.44
2023-03-21T07:50:50.674Z,86.58
2023-03-21T07:51:50.647Z,86.18
2023-03-21T07:52:50.652Z,86.48
2023-03-21T07:53:50.646Z,86.14
2023-03-21T07:54:50.617Z,85.97
2023-03-21T07:55:50.609Z,86.07
2023-03-21T07:56:50.622Z,86.34
2023-03-21T07:57:50.590Z,86.24
2023-03-21T07:58:50.570Z,85.42
2023-03-21T07:59:50.557Z,85.01
2023-03-21T08:00:50.573Z,85.56
2023-03-21T08:01:50.580Z,85.22
2023-03-21T08:02:50.541Z,84.80
2023-03-21T08:03:50.589Z,85.11
2023-03-21T08:04:50.501Z,85.93
2023-03-21T08:05:50.544Z,86.14
2023-03-21T08:06:50.505Z,86.55
2023-03-21T08:07:50.465Z,86.24
2023-03-21T08:08:50.484Z,85.93
2023-03-21T08:09:50.441Z,86.24
2023-03-21T08:10:50.449Z,85.72
2023-03-21T08:11:50.420Z,85.31
2023-03-21T08:12:50.423Z,85.28
2023-03-21T08:13:50.403Z,85.52
2023-03-21T08:14:50.438Z,85.01
2023-03-21T08:15:50.420Z,85.22
2023-03-21T08:16:50.526Z,85.17
2023-03-21T08:17:50.368Z,84.97
2023-03-21T08:18:50.466Z,84.87
2023-03-21T08:19:50.358Z,84.77
2023-03-21T08:20:50.503Z,84.87
2023-03-21T08:21:50.324Z,84.87
2023-03-21T08:22:50.516Z,84.25
2023-03-21T08:23:50.322Z,84.46
2023-03-21T08:24:50.547Z,84.56
2023-03-21T08:25:50.270Z,84.01
2023-03-21T08:26:50.308Z,84.72
2023-03-21T08:27:50.270Z,84.11
2023-03-21T08:28:50.254Z,84.93
2023-03-21T08:29:50.219Z,84.38
2023-03-21T08:30:50.261Z,83.50
2023-03-21T08:31:50.225Z,84.07
2023-03-21T08:32:50.182Z,84.28
2023-03-21T08:33:50.180Z,84.17
2023-03-21T08:34:50.164Z,83.97
2023-03-21T08:35:50.201Z,84.24
2023-03-21T08:36:50.171Z,84.03
2023-03-21T08:37:50.155Z,83.79
2023-03-21T08:38:50.124Z,84.30
2023-03-21T08:39:50.181Z,83.79
2023-03-21T08:40:50.096Z,82.91
2023-03-21T08:41:50.136Z,82.77
2023-03-21T08:42:50.084Z,81.85
2023-03-21T08:43:50.066Z,82.26
2023-03-21T08:44:50.056Z,82.56
2023-03-21T08:45:50.080Z,82.53
2023-03-21T08:46:50.048Z,82.93
2023-03-21T08:47:50.053Z,82.73
2023-03-21T08:48:50.181Z,82.69
2023-03-21T08:49:49.994Z,81.87
2023-03-21T08:50:50.035Z,81.40
2023-03-21T08:51:49.964Z,80.65
2023-03-21T08:52:49.997Z,81.37
2023-03-21T08:53:50.057Z,81.16
2023-03-21T08:54:49.966Z,80.44
2023-03-21T08:55:49.940Z,80.75
2023-03-21T08:56:49.922Z,80.96
2023-03-21T08:57:49.901Z,80.51
2023-03-21T08:58:49.895Z,80.91
2023-03-21T08:59:49.883Z,80.91
2023-03-21T09:00:49.901Z,81.23
2023-03-21T09:01:49.904Z,80.00
2023-03-21T09:02:49.851Z,80.51
2023-03-21T09:03:49.836Z,80.91
2023-03-21T09:04:49.876Z,81.02
2023-03-21T09:05:49.834Z,81.29
2023-03-21T09:06:49.840Z,80.30
2023-03-21T09:07:49.831Z,80.30
2023-03-21T09:08:49.788Z,80.61
2023-03-21T09:09:58.089Z,80.10
2023-03-21T09:10:50.848Z,80.51
2023-03-21T09:11:52.089Z,80.16
2023-03-21T09:12:49.745Z,80.57
2023-03-21T09:13:49.735Z,79.86
2023-03-21T09:14:49.706Z,79.66
2023-03-21T09:15:49.738Z,79.75
2023-03-21T09:16:49.682Z,79.14
2023-03-21T09:17:49.710Z,78.74
2023-03-21T09:18:49.705Z,78.53
2023-03-21T09:19:49.698Z,79.00
2023-03-21T09:20:49.648Z,78.70
2023-03-21T09:21:49.642Z,78.46
2023-03-21T09:22:49.637Z,77.85
2023-03-21T09:23:49.611Z,77.85
2023-03-21T09:24:49.625Z,77.64
2023-03-21T09:25:49.601Z,76.59
2023-03-21T09:26:49.577Z,75.92
2023-03-21T09:27:49.565Z,76.69
2023-03-21T09:28:49.552Z,76.79
2023-03-21T09:29:49.615Z,75.43
2023-03-21T09:30:49.535Z,74.21
2023-03-21T09:31:49.538Z,75.37
2023-03-21T09:32:49.576Z,76.15
2023-03-21T09:33:49.496Z,75.23
2023-03-21T09:34:49.477Z,75.84
2023-03-21T09:35:51.741Z,74.62
2023-03-21T09:36:49.462Z,74.15
2023-03-21T09:37:49.456Z,74.25
2023-03-21T09:38:49.467Z,75.13
2023-03-21T09:39:49.425Z,75.74
2023-03-21T09:40:49.446Z,74.72
2023-03-21T09:41:49.433Z,74.32
2023-03-21T09:42:49.419Z,74.72
2023-03-21T09:43:49.401Z,74.21
2023-03-21T09:44:49.368Z,73.64
2023-03-21T09:45:49.364Z,74.04
2023-03-21T09:46:49.382Z,74.69
2023-03-21T09:47:49.696Z,74.49
2023-03-21T09:48:56.837Z,75.57
2023-03-21T09:49:50.311Z,74.79
2023-03-21T09:50:49.353Z,74.76
2023-03-21T09:51:49.299Z,75.57
2023-03-21T09:52:49.303Z,74.25
2023-03-21T09:53:49.292Z,74.55
2023-03-21T09:54:49.273Z,74.86
2023-03-21T09:55:49.261Z,75.57
2023-03-21T09:56:49.267Z,75.37
2023-03-21T09:57:49.240Z,74.76
2023-03-21T09:58:49.231Z,75.78
2023-03-21T09:59:49.202Z,74.41
2023-03-21T10:00:49.261Z,75.43
2023-03-21T10:01:49.242Z,74.21
2023-03-21T10:02:49.163Z,75.23
2023-03-21T10:03:49.180Z,74.72
2023-03-21T10:04:49.250Z,75.23
2023-03-21T10:05:49.170Z,74.45
2023-03-21T10:06:49.118Z,74.65
2023-03-21T10:07:49.107Z,75.57
2023-03-21T10:08:49.115Z,74.65
2023-03-21T10:09:49.131Z,74.52
2023-03-21T10:10:49.069Z,75.60
2023-03-21T10:11:49.058Z,75.30
2023-03-21T10:12:49.079Z,75.20
2023-03-21T10:13:49.056Z,73.97
2023-03-21T10:14:49.060Z,74.69
2023-03-21T10:15:49.028Z,74.08
2023-03-21T10:16:49.079Z,73.16
2023-03-21T10:17:48.990Z,73.26
2023-03-21T10:18:49.092Z,74.08
2023-03-21T10:19:48.993Z,74.15
2023-03-21T10:20:48.959Z,73.94
2023-03-21T10:22:00.932Z,75.87
2023-03-21T10:22:49.928Z,73.23
2023-03-21T10:23:48.917Z,74.55
2023-03-21T10:24:48.961Z,73.77
2023-03-21T10:25:48.917Z,73.43
2023-03-21T10:26:48.898Z,73.94
2023-03-21T10:27:48.877Z,73.47
2023-03-21T10:28:53.197Z,73.84
2023-03-21T10:29:48.874Z,73.23
2023-03-21T10:30:48.840Z,73.02
2023-03-21T10:31:48.862Z,73.84
2023-03-21T10:32:48.858Z,73.74
2023-03-21T10:33:48.842Z,74.82
2023-03-21T10:34:48.818Z,73.74
2023-03-21T10:35:48.782Z,73.60
2023-03-21T10:36:48.769Z,73.91
2023-03-21T10:37:48.764Z,74.31
2023-03-21T10:38:48.762Z,74.72
2023-03-21T10:39:48.748Z,73.19
2023-03-21T10:40:48.728Z,74.01
2023-03-21T10:41:48.724Z,73.70
2023-03-21T10:42:48.703Z,73.54
2023-03-21T10:43:48.725Z,73.43
2023-03-21T10:44:48.737Z,73.70
2023-03-21T10:45:48.889Z,74.31
2023-03-21T10:46:48.987Z,74.38
2023-03-21T10:47:48.978Z,73.19
2023-03-21T10:48:48.760Z,73.39
2023-03-21T10:50:12.084Z,72.92
2023-03-21T10:50:49.657Z,73.54
2023-03-21T10:51:48.631Z,74.41
2023-03-21T10:52:48.588Z,73.39
2023-03-21T10:53:48.580Z,74.11
2023-03-21T10:54:48.569Z,73.46
2023-03-21T10:55:48.556Z,72.65
2023-03-21T10:56:48.566Z,73.36
2023-03-21T10:57:48.541Z,73.26
2023-03-21T10:58:48.519Z,73.16
2023-03-21T10:59:48.505Z,73.13
2023-03-21T11:00:48.562Z,73.22
2023-03-21T11:01:48.532Z,72.78
2023-03-21T11:02:48.559Z,73.39
2023-03-21T11:03:48.473Z,73.06
2023-03-21T11:04:48.480Z,72.55
2023-03-21T11:05:48.465Z,71.50
2023-03-21T11:06:48.425Z,72.01
2023-03-21T11:07:48.426Z,70.79
2023-03-21T11:08:48.446Z,70.39
2023-03-21T11:09:49.165Z,70.48
2023-03-21T11:10:48.425Z,70.72
2023-03-21T11:11:48.379Z,70.92
2023-03-21T11:12:48.386Z,71.47
2023-03-21T11:13:48.404Z,71.97
2023-03-21T11:14:48.346Z,71.88
2023-03-21T11:15:48.371Z,71.57
2023-03-21T11:16:48.410Z,72.89
2023-03-21T11:17:48.362Z,72.58
2023-03-21T11:18:48.315Z,71.57
2023-03-21T11:19:48.309Z,72.28
2023-03-21T11:20:48.277Z,71.64
2023-03-21T11:21:48.263Z,72.08
2023-03-21T11:22:48.311Z,71.97
2023-03-21T11:23:48.311Z,71.67
2023-03-21T11:24:48.240Z,72.08
2023-03-21T11:25:48.225Z,72.21
2023-03-21T11:26:48.265Z,72.17
2023-03-21T11:27:48.200Z,72.28
2023-03-21T11:28:48.194Z,72.17
2023-03-21T11:29:48.185Z,72.08
2023-03-21T11:30:48.231Z,72.08
2023-03-21T11:31:48.203Z,72.11
2023-03-21T11:32:48.155Z,72.25
2023-03-21T11:33:48.153Z,72.85
2023-03-21T11:34:48.152Z,72.45
2023-03-21T11:35:48.156Z,72.25
2023-03-21T11:36:48.107Z,72.85
2023-03-21T11:37:48.199Z,73.26
2023-03-21T11:38:48.137Z,72.65
2023-03-21T11:39:48.111Z,73.06
2023-03-21T11:40:48.056Z,72.55
2023-03-21T11:41:48.079Z,73.46
2023-03-21T11:42:48.071Z,72.75
2023-03-21T11:43:48.123Z,72.96
2023-03-21T11:44:48.009Z,73.26
2023-03-21T11:45:48.041Z,73.46
2023-03-21T11:46:47.992Z,73.26
2023-03-21T11:47:48.021Z,72.89
2023-03-21T11:48:47.996Z,73.30
2023-03-21T11:49:49.613Z,73.09
2023-03-21T11:50:47.955Z,73.19
2023-03-21T11:51:47.941Z,73.91
2023-03-21T11:52:47.951Z,73.91
2023-03-21T11:53:47.949Z,73.80
2023-03-21T11:54:47.894Z,74.01
2023-03-21T11:55:47.911Z,73.70
2023-03-21T11:56:47.889Z,74.18
2023-03-21T11:57:47.883Z,74.21
2023-03-21T11:58:47.925Z,74.11
2023-03-21T11:59:47.836Z,74.62
2023-03-21T12:00:47.828Z,74.62
2023-03-21T12:01:47.812Z,74.01
2023-03-21T12:02:47.845Z,74.15
2023-03-21T12:03:49.060Z,75.46
2023-03-21T12:04:47.799Z,75.53
2023-03-21T12:05:47.802Z,75.37
2023-03-21T12:06:47.756Z,75.46
2023-03-21T12:07:47.747Z,75.37
2023-03-21T12:08:47.743Z,75.87
2023-03-21T12:09:47.750Z,76.28
2023-03-21T12:10:47.777Z,76.01
2023-03-21T12:11:47.705Z,76.72
2023-03-21T12:12:47.730Z,77.64
2023-03-21T12:13:48.237Z,78.15
2023-03-21T12:14:47.680Z,78.25
2023-03-21T12:15:47.704Z,78.55
2023-03-21T12:16:47.682Z,77.74
2023-03-21T12:17:47.652Z,78.25
2023-03-21T12:18:47.643Z,78.76
2023-03-21T12:19:47.610Z,78.15
2023-03-21T12:20:47.606Z,78.86
2023-03-21T12:21:47.815Z,79.16
2023-03-21T12:22:47.598Z,79.77
2023-03-21T12:23:48.141Z,80.69
2023-03-21T12:24:47.571Z,80.69
2023-03-21T12:25:47.553Z,81.10
2023-03-21T12:26:47.537Z,80.90
2023-03-21T12:27:47.521Z,82.01
2023-03-21T12:28:47.506Z,82.32
2023-03-21T12:29:47.528Z,82.52
2023-03-21T12:30:47.502Z,82.32
2023-03-21T12:31:47.550Z,83.84
2023-03-21T12:32:47.602Z,83.07
2023-03-21T12:33:47.503Z,82.26
2023-03-21T12:34:47.499Z,83.27
2023-03-21T12:35:47.444Z,82.66
2023-03-21T12:36:47.417Z,82.56
2023-03-21T12:37:47.525Z,82.29
2023-03-21T12:38:47.424Z,82.60
2023-03-21T12:39:47.375Z,82.60
2023-03-21T12:40:47.394Z,83.01
2023-03-21T12:41:47.362Z,82.40
2023-03-21T12:42:47.357Z,82.50
2023-03-21T12:43:47.334Z,82.66
2023-03-21T12:44:47.323Z,83.01
2023-03-21T12:45:47.899Z,82.90
2023-03-21T12:46:47.387Z,83.51
2023-03-21T12:47:47.330Z,83.62
2023-03-21T12:48:47.296Z,83.92
2023-03-21T12:49:47.269Z,83.11
2023-03-21T12:50:47.258Z,83.51
2023-03-21T12:51:47.251Z,83.92
2023-03-21T12:52:47.235Z,83.11
2023-03-21T12:53:47.330Z,84.43
2023-03-21T12:54:47.229Z,84.12